Página principal
METAR-TAF:

METAR-TAF

Aeroportos :

Nevis, Antígua e Barbuda

latitude: 17-12N, longitude: 062-35W, altura: 17 m

Observação actual do tempo

O boletim foi feito há 3 horas e 14 minutos, às 23:00 UTC
Vento 16 kt de este
Temperatura 28°C
Humidade 66%
Pressão 1014 hPa
Visibilidade 10 km ou mais
Poucas nuvensa uma altura de 2000 ft

METAR: TKPN 152300Z 09016KT 9999 FEW020 28/21 Q1014

Hora: 22:14 (02:14 UTC)

Previsão

O boletim foi feito há 3 horas e 14 minutos, às 23:00 UTC
Previsão válida de 16 às 00 UTC a 16 às 24 UTC
Vento 14 kt de este
Visibilidade 10 km ou mais
Nuvens dispersasa uma altura de 2200 ft
Probabilidade 40% :
Temporariamente
de 16 às 04 UTC a 16 às 12 UTC
aguaceiros de chuva

TAF: TKPN 152300Z 1600/1624 10014KT 9999 SCT022 PROB40 TEMPO 1604/1612 SHRA

Observações e previsões do tempo de mais de 4000 aeroportos (mensagens METAR e TAF).

As estações disponíveis são os pontos amarelos e vermelhos sobre o mapa.

Mova o rato sobre o mapa para ver o nome da estação.

Depois clique no ponto para visualizar as observações e previsões meteorológicas.

Para alterar o mapa : clique nos botões verdes com uma cruz preta para aumentar o zoom; no botão verde com uma pitada de zoom; ou nas setas verdes para mapas adjacentes.


METAR-TAF: